sensor_id;sensor_type;location;lat;lon;timestamp;P1;durP1;ratioP1;P2;durP2;ratioP2
75716;SDS011;64333;50.138;14.332;2022-12-29T00:01:26;7.80;;;2.90;;
75716;SDS011;64333;50.138;14.332;2022-12-29T00:03:52;8.95;;;4.25;;
75716;SDS011;64333;50.138;14.332;2022-12-29T00:06:17;9.50;;;3.58;;
75716;SDS011;64333;50.138;14.332;2022-12-29T00:08:42;12.25;;;4.03;;
75716;SDS011;64333;50.138;14.332;2022-12-29T00:11:08;7.22;;;3.47;;
75716;SDS011;64333;50.138;14.332;2022-12-29T00:13:35;6.57;;;3.45;;
75716;SDS011;64333;50.138;14.332;2022-12-29T00:16:20;4.82;;;3.05;;
75716;SDS011;64333;50.138;14.332;2022-12-29T00:18:45;10.10;;;4.22;;
75716;SDS011;64333;50.138;14.332;2022-12-29T00:21:14;12.18;;;4.70;;
75716;SDS011;64333;50.138;14.332;2022-12-29T00:23:59;8.82;;;3.13;;
75716;SDS011;64333;50.138;14.332;2022-12-29T00:26:43;11.73;;;5.07;;
75716;SDS011;64333;50.138;14.332;2022-12-29T00:29:28;11.57;;;4.20;;
75716;SDS011;64333;50.138;14.332;2022-12-29T00:32:12;7.72;;;3.70;;
75716;SDS011;64333;50.138;14.332;2022-12-29T00:34:55;10.25;;;4.05;;
75716;SDS011;64333;50.138;14.332;2022-12-29T00:37:33;5.97;;;2.90;;
75716;SDS011;64333;50.138;14.332;2022-12-29T00:40:18;6.10;;;2.63;;
75716;SDS011;64333;50.138;14.332;2022-12-29T00:43:03;9.18;;;3.38;;
75716;SDS011;64333;50.138;14.332;2022-12-29T00:45:46;6.70;;;3.42;;
75716;SDS011;64333;50.138;14.332;2022-12-29T00:48:12;4.28;;;2.70;;
75716;SDS011;64333;50.138;14.332;2022-12-29T00:50:37;7.55;;;3.55;;
75716;SDS011;64333;50.138;14.332;2022-12-29T00:53:02;4.78;;;2.53;;
75716;SDS011;64333;50.138;14.332;2022-12-29T00:55:28;4.07;;;1.60;;
75716;SDS011;64333;50.138;14.332;2022-12-29T00:57:53;6.35;;;2.67;;
75716;SDS011;64333;50.138;14.332;2022-12-29T01:00:18;5.93;;;2.85;;
75716;SDS011;64333;50.138;14.332;2022-12-29T01:02:44;6.07;;;2.70;;
75716;SDS011;64333;50.138;14.332;2022-12-29T01:05:09;4.47;;;2.15;;
75716;SDS011;64333;50.138;14.332;2022-12-29T01:07:34;3.00;;;2.05;;
75716;SDS011;64333;50.138;14.332;2022-12-29T01:10:00;4.30;;;2.25;;
75716;SDS011;64333;50.138;14.332;2022-12-29T01:12:37;3.75;;;2.00;;
75716;SDS011;64333;50.138;14.332;2022-12-29T01:15:06;4.75;;;1.98;;
75716;SDS011;64333;50.138;14.332;2022-12-29T01:17:33;2.22;;;1.70;;
75716;SDS011;64333;50.138;14.332;2022-12-29T01:19:58;4.15;;;2.40;;
75716;SDS011;64333;50.138;14.332;2022-12-29T01:22:24;6.15;;;2.05;;
75716;SDS011;64333;50.138;14.332;2022-12-29T01:24:49;5.35;;;2.67;;
75716;SDS011;64333;50.138;14.332;2022-12-29T01:27:14;4.35;;;2.78;;
75716;SDS011;64333;50.138;14.332;2022-12-29T01:29:40;7.32;;;3.30;;
75716;SDS011;64333;50.138;14.332;2022-12-29T01:32:05;6.40;;;3.05;;
75716;SDS011;64333;50.138;14.332;2022-12-29T01:34:30;4.00;;;2.03;;
75716;SDS011;64333;50.138;14.332;2022-12-29T01:36:56;4.38;;;2.25;;
75716;SDS011;64333;50.138;14.332;2022-12-29T01:39:21;5.80;;;2.70;;
75716;SDS011;64333;50.138;14.332;2022-12-29T01:41:46;5.18;;;2.20;;
75716;SDS011;64333;50.138;14.332;2022-12-29T01:47:37;3.75;;;2.40;;
75716;SDS011;64333;50.138;14.332;2022-12-29T01:50:10;4.63;;;2.50;;
75716;SDS011;64333;50.138;14.332;2022-12-29T01:52:42;4.78;;;2.50;;
75716;SDS011;64333;50.138;14.332;2022-12-29T01:55:11;5.80;;;2.17;;
75716;SDS011;64333;50.138;14.332;2022-12-29T01:57:38;4.28;;;1.88;;
75716;SDS011;64333;50.138;14.332;2022-12-29T02:00:08;4.28;;;2.38;;
75716;SDS011;64333;50.138;14.332;2022-12-29T02:02:36;4.78;;;1.40;;
75716;SDS011;64333;50.138;14.332;2022-12-29T02:05:07;3.33;;;2.00;;
75716;SDS011;64333;50.138;14.332;2022-12-29T02:07:54;2.85;;;2.03;;
75716;SDS011;64333;50.138;14.332;2022-12-29T02:10:21;2.97;;;1.90;;
75716;SDS011;64333;50.138;14.332;2022-12-29T02:12:49;2.72;;;2.00;;
75716;SDS011;64333;50.138;14.332;2022-12-29T02:15:16;2.58;;;1.88;;
75716;SDS011;64333;50.138;14.332;2022-12-29T02:35:59;3.43;;;1.33;;
75716;SDS011;64333;50.138;14.332;2022-12-29T02:41:47;3.40;;;1.77;;
75716;SDS011;64333;50.138;14.332;2022-12-29T02:47:35;3.92;;;1.90;;
75716;SDS011;64333;50.138;14.332;2022-12-29T02:50:15;3.10;;;2.00;;
75716;SDS011;64333;50.138;14.332;2022-12-29T02:52:47;3.72;;;1.98;;
75716;SDS011;64333;50.138;14.332;2022-12-29T02:55:18;2.88;;;1.70;;
75716;SDS011;64333;50.138;14.332;2022-12-29T02:57:43;3.47;;;1.60;;
75716;SDS011;64333;50.138;14.332;2022-12-29T03:05:45;3.00;;;1.52;;
75716;SDS011;64333;50.138;14.332;2022-12-29T03:11:27;2.38;;;1.65;;
75716;SDS011;64333;50.138;14.332;2022-12-29T03:20:01;2.55;;;1.80;;
75716;SDS011;64333;50.138;14.332;2022-12-29T03:22:40;3.33;;;2.08;;
75716;SDS011;64333;50.138;14.332;2022-12-29T03:25:14;3.40;;;1.92;;
75716;SDS011;64333;50.138;14.332;2022-12-29T03:27:50;4.15;;;1.83;;
75716;SDS011;64333;50.138;14.332;2022-12-29T03:30:20;3.20;;;1.40;;
75716;SDS011;64333;50.138;14.332;2022-12-29T03:32:47;3.60;;;1.38;;
75716;SDS011;64333;50.138;14.332;2022-12-29T03:35:16;2.47;;;1.95;;
75716;SDS011;64333;50.138;14.332;2022-12-29T03:37:45;3.28;;;1.65;;
75716;SDS011;64333;50.138;14.332;2022-12-29T03:40:23;1.77;;;1.30;;
75716;SDS011;64333;50.138;14.332;2022-12-29T03:42:50;2.85;;;1.85;;
75716;SDS011;64333;50.138;14.332;2022-12-29T03:45:16;3.53;;;1.45;;
75716;SDS011;64333;50.138;14.332;2022-12-29T03:47:41;2.85;;;1.63;;
75716;SDS011;64333;50.138;14.332;2022-12-29T03:50:07;4.40;;;1.80;;
75716;SDS011;64333;50.138;14.332;2022-12-29T03:52:33;1.90;;;1.50;;
75716;SDS011;64333;50.138;14.332;2022-12-29T03:54:59;2.80;;;1.67;;
75716;SDS011;64333;50.138;14.332;2022-12-29T03:57:24;2.95;;;1.88;;
75716;SDS011;64333;50.138;14.332;2022-12-29T03:59:49;3.55;;;2.10;;
75716;SDS011;64333;50.138;14.332;2022-12-29T04:02:15;2.60;;;1.80;;
75716;SDS011;64333;50.138;14.332;2022-12-29T04:04:40;4.40;;;1.85;;
75716;SDS011;64333;50.138;14.332;2022-12-29T04:07:05;4.50;;;1.88;;
75716;SDS011;64333;50.138;14.332;2022-12-29T04:09:31;2.38;;;1.80;;
75716;SDS011;64333;50.138;14.332;2022-12-29T04:11:56;2.70;;;1.50;;
75716;SDS011;64333;50.138;14.332;2022-12-29T04:14:21;2.20;;;1.48;;
75716;SDS011;64333;50.138;14.332;2022-12-29T04:16:47;3.75;;;1.55;;
75716;SDS011;64333;50.138;14.332;2022-12-29T04:19:12;1.73;;;1.38;;
75716;SDS011;64333;50.138;14.332;2022-12-29T04:21:38;3.35;;;1.50;;
75716;SDS011;64333;50.138;14.332;2022-12-29T04:24:03;2.17;;;1.42;;
75716;SDS011;64333;50.138;14.332;2022-12-29T04:26:31;1.55;;;1.30;;
75716;SDS011;64333;50.138;14.332;2022-12-29T04:28:56;2.45;;;1.50;;
75716;SDS011;64333;50.138;14.332;2022-12-29T04:31:22;2.20;;;1.40;;
75716;SDS011;64333;50.138;14.332;2022-12-29T04:33:47;2.33;;;1.20;;
75716;SDS011;64333;50.138;14.332;2022-12-29T04:36:12;2.25;;;1.10;;
75716;SDS011;64333;50.138;14.332;2022-12-29T04:38:38;2.65;;;1.30;;
75716;SDS011;64333;50.138;14.332;2022-12-29T04:41:03;1.63;;;1.40;;
75716;SDS011;64333;50.138;14.332;2022-12-29T04:43:29;2.83;;;1.70;;
75716;SDS011;64333;50.138;14.332;2022-12-29T04:45:54;1.88;;;1.50;;
75716;SDS011;64333;50.138;14.332;2022-12-29T04:48:20;2.55;;;1.60;;
75716;SDS011;64333;50.138;14.332;2022-12-29T04:50:47;2.70;;;1.85;;
75716;SDS011;64333;50.138;14.332;2022-12-29T04:53:13;2.00;;;1.38;;
75716;SDS011;64333;50.138;14.332;2022-12-29T04:55:38;2.15;;;1.50;;
75716;SDS011;64333;50.138;14.332;2022-12-29T04:58:04;3.08;;;1.40;;
75716;SDS011;64333;50.138;14.332;2022-12-29T05:00:29;3.17;;;1.77;;
75716;SDS011;64333;50.138;14.332;2022-12-29T05:02:54;3.35;;;1.75;;
75716;SDS011;64333;50.138;14.332;2022-12-29T05:05:20;2.45;;;1.67;;
75716;SDS011;64333;50.138;14.332;2022-12-29T05:07:45;3.13;;;1.50;;
75716;SDS011;64333;50.138;14.332;2022-12-29T05:10:10;2.65;;;1.35;;
75716;SDS011;64333;50.138;14.332;2022-12-29T05:12:36;1.88;;;1.35;;
75716;SDS011;64333;50.138;14.332;2022-12-29T05:15:03;2.97;;;1.40;;
75716;SDS011;64333;50.138;14.332;2022-12-29T05:17:34;4.35;;;1.40;;
75716;SDS011;64333;50.138;14.332;2022-12-29T05:19:59;2.28;;;1.42;;
75716;SDS011;64333;50.138;14.332;2022-12-29T05:22:25;2.75;;;1.50;;
75716;SDS011;64333;50.138;14.332;2022-12-29T05:24:50;2.63;;;1.38;;
75716;SDS011;64333;50.138;14.332;2022-12-29T05:27:16;2.25;;;1.40;;
75716;SDS011;64333;50.138;14.332;2022-12-29T05:29:41;2.38;;;1.48;;
75716;SDS011;64333;50.138;14.332;2022-12-29T05:32:06;2.40;;;1.40;;
75716;SDS011;64333;50.138;14.332;2022-12-29T05:34:32;2.33;;;1.55;;
75716;SDS011;64333;50.138;14.332;2022-12-29T05:36:57;1.42;;;1.00;;
75716;SDS011;64333;50.138;14.332;2022-12-29T05:39:22;2.53;;;1.63;;
75716;SDS011;64333;50.138;14.332;2022-12-29T05:41:48;2.30;;;1.30;;
75716;SDS011;64333;50.138;14.332;2022-12-29T05:44:13;2.22;;;1.48;;
75716;SDS011;64333;50.138;14.332;2022-12-29T05:46:39;4.63;;;1.67;;
75716;SDS011;64333;50.138;14.332;2022-12-29T05:49:05;2.22;;;1.48;;
75716;SDS011;64333;50.138;14.332;2022-12-29T05:51:31;1.77;;;1.27;;
75716;SDS011;64333;50.138;14.332;2022-12-29T05:53:56;2.63;;;1.42;;
75716;SDS011;64333;50.138;14.332;2022-12-29T05:56:22;3.60;;;1.30;;
75716;SDS011;64333;50.138;14.332;2022-12-29T05:58:47;1.83;;;1.42;;
75716;SDS011;64333;50.138;14.332;2022-12-29T06:01:13;1.92;;;1.50;;
75716;SDS011;64333;50.138;14.332;2022-12-29T06:03:38;2.22;;;1.65;;
75716;SDS011;64333;50.138;14.332;2022-12-29T06:06:03;2.65;;;1.90;;
75716;SDS011;64333;50.138;14.332;2022-12-29T06:08:29;2.38;;;1.63;;
75716;SDS011;64333;50.138;14.332;2022-12-29T06:10:54;3.13;;;1.50;;
75716;SDS011;64333;50.138;14.332;2022-12-29T06:13:20;1.77;;;1.38;;
75716;SDS011;64333;50.138;14.332;2022-12-29T06:15:47;2.90;;;1.45;;
75716;SDS011;64333;50.138;14.332;2022-12-29T06:18:13;1.90;;;1.20;;
75716;SDS011;64333;50.138;14.332;2022-12-29T06:20:38;1.42;;;1.13;;
75716;SDS011;64333;50.138;14.332;2022-12-29T06:23:05;2.53;;;1.20;;
75716;SDS011;64333;50.138;14.332;2022-12-29T06:25:30;1.98;;;1.55;;
75716;SDS011;64333;50.138;14.332;2022-12-29T06:27:57;2.08;;;1.40;;
75716;SDS011;64333;50.138;14.332;2022-12-29T06:30:22;2.28;;;1.38;;
75716;SDS011;64333;50.138;14.332;2022-12-29T06:32:48;1.40;;;1.00;;
75716;SDS011;64333;50.138;14.332;2022-12-29T06:35:13;3.80;;;1.48;;
75716;SDS011;64333;50.138;14.332;2022-12-29T06:37:39;1.95;;;0.98;;
75716;SDS011;64333;50.138;14.332;2022-12-29T06:40:04;1.83;;;1.27;;
75716;SDS011;64333;50.138;14.332;2022-12-29T06:42:30;1.60;;;1.08;;
75716;SDS011;64333;50.138;14.332;2022-12-29T06:44:56;1.73;;;1.30;;
75716;SDS011;64333;50.138;14.332;2022-12-29T06:47:23;3.20;;;1.40;;
75716;SDS011;64333;50.138;14.332;2022-12-29T06:49:49;3.70;;;1.40;;
75716;SDS011;64333;50.138;14.332;2022-12-29T06:52:14;3.00;;;1.30;;
75716;SDS011;64333;50.138;14.332;2022-12-29T06:54:40;3.47;;;1.45;;
75716;SDS011;64333;50.138;14.332;2022-12-29T06:57:05;3.90;;;1.63;;
75716;SDS011;64333;50.138;14.332;2022-12-29T06:59:31;3.55;;;1.75;;
75716;SDS011;64333;50.138;14.332;2022-12-29T07:01:56;3.40;;;1.73;;
75716;SDS011;64333;50.138;14.332;2022-12-29T07:04:22;3.47;;;2.00;;
75716;SDS011;64333;50.138;14.332;2022-12-29T07:06:47;4.18;;;2.00;;
75716;SDS011;64333;50.138;14.332;2022-12-29T07:09:12;3.65;;;2.22;;
75716;SDS011;64333;50.138;14.332;2022-12-29T07:11:38;3.42;;;1.70;;
75716;SDS011;64333;50.138;14.332;2022-12-29T07:14:03;2.33;;;1.30;;
75716;SDS011;64333;50.138;14.332;2022-12-29T07:16:29;2.85;;;1.30;;
75716;SDS011;64333;50.138;14.332;2022-12-29T07:18:55;1.70;;;1.40;;
75716;SDS011;64333;50.138;14.332;2022-12-29T07:21:21;2.83;;;1.80;;
75716;SDS011;64333;50.138;14.332;2022-12-29T07:23:46;3.22;;;1.70;;
75716;SDS011;64333;50.138;14.332;2022-12-29T07:26:12;2.03;;;1.70;;
75716;SDS011;64333;50.138;14.332;2022-12-29T07:28:39;1.85;;;1.50;;
75716;SDS011;64333;50.138;14.332;2022-12-29T07:31:08;1.90;;;1.25;;
75716;SDS011;64333;50.138;14.332;2022-12-29T07:33:39;2.00;;;1.48;;
75716;SDS011;64333;50.138;14.332;2022-12-29T07:36:04;1.90;;;1.10;;
75716;SDS011;64333;50.138;14.332;2022-12-29T07:38:30;2.25;;;1.65;;
75716;SDS011;64333;50.138;14.332;2022-12-29T07:40:56;1.88;;;0.98;;
75716;SDS011;64333;50.138;14.332;2022-12-29T07:43:23;2.53;;;1.38;;
75716;SDS011;64333;50.138;14.332;2022-12-29T07:45:48;2.88;;;1.52;;
75716;SDS011;64333;50.138;14.332;2022-12-29T07:48:13;4.88;;;1.70;;
75716;SDS011;64333;50.138;14.332;2022-12-29T07:50:39;3.65;;;1.63;;
75716;SDS011;64333;50.138;14.332;2022-12-29T07:53:04;5.30;;;2.40;;
75716;SDS011;64333;50.138;14.332;2022-12-29T07:55:30;8.00;;;4.38;;
75716;SDS011;64333;50.138;14.332;2022-12-29T07:57:55;4.07;;;2.50;;
75716;SDS011;64333;50.138;14.332;2022-12-29T08:00:21;2.55;;;1.65;;
75716;SDS011;64333;50.138;14.332;2022-12-29T08:02:47;4.20;;;1.92;;
75716;SDS011;64333;50.138;14.332;2022-12-29T08:05:12;2.17;;;1.30;;
75716;SDS011;64333;50.138;14.332;2022-12-29T08:07:38;1.67;;;1.40;;
75716;SDS011;64333;50.138;14.332;2022-12-29T08:10:03;2.78;;;1.38;;
75716;SDS011;64333;50.138;14.332;2022-12-29T08:12:29;3.90;;;1.38;;
75716;SDS011;64333;50.138;14.332;2022-12-29T08:14:55;2.30;;;1.30;;
75716;SDS011;64333;50.138;14.332;2022-12-29T08:17:20;1.50;;;1.15;;
75716;SDS011;64333;50.138;14.332;2022-12-29T08:19:46;1.92;;;1.40;;
75716;SDS011;64333;50.138;14.332;2022-12-29T08:22:12;2.30;;;1.30;;
75716;SDS011;64333;50.138;14.332;2022-12-29T08:24:39;2.05;;;1.20;;
75716;SDS011;64333;50.138;14.332;2022-12-29T08:27:04;2.90;;;1.33;;
75716;SDS011;64333;50.138;14.332;2022-12-29T08:29:29;2.72;;;1.27;;
75716;SDS011;64333;50.138;14.332;2022-12-29T08:31:55;1.75;;;1.02;;
75716;SDS011;64333;50.138;14.332;2022-12-29T08:34:20;1.70;;;1.10;;
75716;SDS011;64333;50.138;14.332;2022-12-29T08:36:46;2.53;;;1.75;;
75716;SDS011;64333;50.138;14.332;2022-12-29T08:39:11;3.72;;;1.52;;
75716;SDS011;64333;50.138;14.332;2022-12-29T08:41:36;2.97;;;1.42;;
75716;SDS011;64333;50.138;14.332;2022-12-29T08:44:02;2.00;;;1.25;;
75716;SDS011;64333;50.138;14.332;2022-12-29T08:46:27;2.38;;;1.20;;
75716;SDS011;64333;50.138;14.332;2022-12-29T08:48:53;1.52;;;1.20;;
75716;SDS011;64333;50.138;14.332;2022-12-29T08:51:19;2.58;;;1.40;;
75716;SDS011;64333;50.138;14.332;2022-12-29T08:53:44;2.00;;;1.20;;
75716;SDS011;64333;50.138;14.332;2022-12-29T08:56:10;2.35;;;1.40;;
75716;SDS011;64333;50.138;14.332;2022-12-29T08:58:36;3.55;;;1.42;;
75716;SDS011;64333;50.138;14.332;2022-12-29T09:01:02;3.35;;;1.60;;
75716;SDS011;64333;50.138;14.332;2022-12-29T09:03:28;3.00;;;1.70;;
75716;SDS011;64333;50.138;14.332;2022-12-29T09:05:53;2.15;;;1.33;;
75716;SDS011;64333;50.138;14.332;2022-12-29T09:08:19;2.92;;;1.58;;
75716;SDS011;64333;50.138;14.332;2022-12-29T09:10:45;3.85;;;1.70;;
75716;SDS011;64333;50.138;14.332;2022-12-29T09:13:11;2.72;;;1.55;;
75716;SDS011;64333;50.138;14.332;2022-12-29T09:15:38;5.82;;;1.98;;
75716;SDS011;64333;50.138;14.332;2022-12-29T09:18:03;6.18;;;3.42;;
75716;SDS011;64333;50.138;14.332;2022-12-29T09:20:29;3.05;;;1.58;;
75716;SDS011;64333;50.138;14.332;2022-12-29T09:22:55;3.03;;;1.75;;
75716;SDS011;64333;50.138;14.332;2022-12-29T09:25:20;2.85;;;1.50;;
75716;SDS011;64333;50.138;14.332;2022-12-29T09:27:49;5.10;;;2.10;;
75716;SDS011;64333;50.138;14.332;2022-12-29T09:30:15;4.75;;;2.10;;
75716;SDS011;64333;50.138;14.332;2022-12-29T09:32:40;3.83;;;2.25;;
75716;SDS011;64333;50.138;14.332;2022-12-29T09:35:06;4.95;;;2.03;;
75716;SDS011;64333;50.138;14.332;2022-12-29T09:37:32;2.55;;;1.48;;
75716;SDS011;64333;50.138;14.332;2022-12-29T09:39:57;5.22;;;1.90;;
75716;SDS011;64333;50.138;14.332;2022-12-29T09:47:49;1.88;;;0.95;;
75716;SDS011;64333;50.138;14.332;2022-12-29T09:50:34;1.75;;;1.10;;
75716;SDS011;64333;50.138;14.332;2022-12-29T09:55:47;2.63;;;1.30;;
75716;SDS011;64333;50.138;14.332;2022-12-29T09:58:18;2.83;;;1.15;;
75716;SDS011;64333;50.138;14.332;2022-12-29T10:00:54;2.25;;;1.67;;
75716;SDS011;64333;50.138;14.332;2022-12-29T10:03:27;1.75;;;1.05;;
75716;SDS011;64333;50.138;14.332;2022-12-29T10:06:11;2.30;;;1.60;;
75716;SDS011;64333;50.138;14.332;2022-12-29T10:17:02;2.25;;;1.15;;
75716;SDS011;64333;50.138;14.332;2022-12-29T10:22:23;2.17;;;1.10;;
75716;SDS011;64333;50.138;14.332;2022-12-29T10:24:50;3.45;;;1.10;;
75716;SDS011;64333;50.138;14.332;2022-12-29T10:27:19;1.58;;;1.20;;
75716;SDS011;64333;50.138;14.332;2022-12-29T10:29:49;2.38;;;1.33;;
75716;SDS011;64333;50.138;14.332;2022-12-29T10:32:27;1.05;;;0.80;;
75716;SDS011;64333;50.138;14.332;2022-12-29T10:34:59;2.88;;;1.60;;
75716;SDS011;64333;50.138;14.332;2022-12-29T10:40:43;2.58;;;1.35;;
75716;SDS011;64333;50.138;14.332;2022-12-29T10:43:24;2.17;;;1.40;;
75716;SDS011;64333;50.138;14.332;2022-12-29T10:49:00;4.25;;;1.30;;
75716;SDS011;64333;50.138;14.332;2022-12-29T10:51:30;2.78;;;1.80;;
75716;SDS011;64333;50.138;14.332;2022-12-29T10:54:04;1.52;;;1.10;;
75716;SDS011;64333;50.138;14.332;2022-12-29T10:56:47;2.13;;;1.20;;
75716;SDS011;64333;50.138;14.332;2022-12-29T11:07:38;1.75;;;1.10;;
75716;SDS011;64333;50.138;14.332;2022-12-29T11:13:02;2.60;;;1.45;;
75716;SDS011;64333;50.138;14.332;2022-12-29T11:15:48;3.95;;;1.85;;
75716;SDS011;64333;50.138;14.332;2022-12-29T11:20:57;2.70;;;1.50;;
75716;SDS011;64333;50.138;14.332;2022-12-29T11:23:35;2.30;;;1.77;;
75716;SDS011;64333;50.138;14.332;2022-12-29T11:26:16;1.23;;;1.05;;
75716;SDS011;64333;50.138;14.332;2022-12-29T11:28:45;3.42;;;1.25;;
75716;SDS011;64333;50.138;14.332;2022-12-29T11:31:15;2.22;;;1.48;;
75716;SDS011;64333;50.138;14.332;2022-12-29T11:33:42;3.88;;;2.13;;
75716;SDS011;64333;50.138;14.332;2022-12-29T11:36:08;2.83;;;1.60;;
75716;SDS011;64333;50.138;14.332;2022-12-29T11:38:51;3.63;;;1.70;;
75716;SDS011;64333;50.138;14.332;2022-12-29T11:41:20;2.42;;;1.25;;
75716;SDS011;64333;50.138;14.332;2022-12-29T11:43:48;2.45;;;1.38;;
75716;SDS011;64333;50.138;14.332;2022-12-29T11:46:16;2.30;;;1.52;;
75716;SDS011;64333;50.138;14.332;2022-12-29T11:48:44;2.65;;;1.73;;
75716;SDS011;64333;50.138;14.332;2022-12-29T11:51:12;2.92;;;1.60;;
75716;SDS011;64333;50.138;14.332;2022-12-29T11:53:47;2.08;;;1.40;;
75716;SDS011;64333;50.138;14.332;2022-12-29T11:58:45;5.93;;;2.90;;
75716;SDS011;64333;50.138;14.332;2022-12-29T12:01:26;3.72;;;2.15;;
75716;SDS011;64333;50.138;14.332;2022-12-29T12:06:42;5.35;;;2.60;;
75716;SDS011;64333;50.138;14.332;2022-12-29T12:09:16;2.92;;;1.75;;
75716;SDS011;64333;50.138;14.332;2022-12-29T12:11:47;3.97;;;1.92;;
75716;SDS011;64333;50.138;14.332;2022-12-29T12:14:23;3.05;;;2.00;;
75716;SDS011;64333;50.138;14.332;2022-12-29T12:16:57;2.28;;;1.45;;
75716;SDS011;64333;50.138;14.332;2022-12-29T12:19:33;1.88;;;1.15;;
75716;SDS011;64333;50.138;14.332;2022-12-29T12:22:08;2.88;;;1.63;;
75716;SDS011;64333;50.138;14.332;2022-12-29T12:24:47;2.38;;;1.40;;
75716;SDS011;64333;50.138;14.332;2022-12-29T12:27:24;2.70;;;1.08;;
75716;SDS011;64333;50.138;14.332;2022-12-29T12:35:30;4.63;;;2.30;;
75716;SDS011;64333;50.138;14.332;2022-12-29T12:38:11;2.30;;;1.08;;
75716;SDS011;64333;50.138;14.332;2022-12-29T12:43:43;5.07;;;2.10;;
75716;SDS011;64333;50.138;14.332;2022-12-29T12:49:36;2.42;;;1.42;;
75716;SDS011;64333;50.138;14.332;2022-12-29T12:55:37;3.22;;;1.95;;
75716;SDS011;64333;50.138;14.332;2022-12-29T13:01:51;2.47;;;1.48;;
75716;SDS011;64333;50.138;14.332;2022-12-29T13:07:20;3.13;;;1.00;;
75716;SDS011;64333;50.138;14.332;2022-12-29T13:26:19;1.60;;;1.20;;
75716;SDS011;64333;50.138;14.332;2022-12-29T13:32:09;1.95;;;1.30;;
75716;SDS011;64333;50.138;14.332;2022-12-29T13:37:08;3.58;;;1.52;;
75716;SDS011;64333;50.138;14.332;2022-12-29T13:39:38;2.22;;;1.35;;
75716;SDS011;64333;50.138;14.332;2022-12-29T13:42:07;2.65;;;1.65;;
75716;SDS011;64333;50.138;14.332;2022-12-29T13:44:45;1.92;;;1.40;;
75716;SDS011;64333;50.138;14.332;2022-12-29T13:50:03;2.28;;;1.50;;
75716;SDS011;64333;50.138;14.332;2022-12-29T14:06:23;1.80;;;1.15;;
75716;SDS011;64333;50.138;14.332;2022-12-29T14:08:52;1.73;;;1.08;;
75716;SDS011;64333;50.138;14.332;2022-12-29T14:11:21;2.25;;;1.30;;
75716;SDS011;64333;50.138;14.332;2022-12-29T14:13:49;2.40;;;1.65;;
75716;SDS011;64333;50.138;14.332;2022-12-29T14:16:48;2.75;;;1.83;;
75716;SDS011;64333;50.138;14.332;2022-12-29T14:19:16;2.55;;;1.27;;
75716;SDS011;64333;50.138;14.332;2022-12-29T14:26:56;3.03;;;1.88;;
75716;SDS011;64333;50.138;14.332;2022-12-29T14:31:50;3.50;;;1.30;;
75716;SDS011;64333;50.138;14.332;2022-12-29T14:34:25;2.55;;;1.80;;
75716;SDS011;64333;50.138;14.332;2022-12-29T14:42:01;2.03;;;1.20;;
75716;SDS011;64333;50.138;14.332;2022-12-29T14:44:34;2.05;;;1.30;;
75716;SDS011;64333;50.138;14.332;2022-12-29T14:49:55;3.85;;;1.85;;
75716;SDS011;64333;50.138;14.332;2022-12-29T14:57:48;4.75;;;1.85;;
75716;SDS011;64333;50.138;14.332;2022-12-29T15:00:22;5.18;;;2.10;;
75716;SDS011;64333;50.138;14.332;2022-12-29T15:03:02;2.85;;;1.50;;
75716;SDS011;64333;50.138;14.332;2022-12-29T15:08:26;4.30;;;1.90;;
75716;SDS011;64333;50.138;14.332;2022-12-29T15:10:56;5.00;;;2.45;;
75716;SDS011;64333;50.138;14.332;2022-12-29T15:13:36;8.43;;;2.22;;
75716;SDS011;64333;50.138;14.332;2022-12-29T15:16:04;3.13;;;1.95;;
75716;SDS011;64333;50.138;14.332;2022-12-29T15:18:45;4.28;;;2.40;;
75716;SDS011;64333;50.138;14.332;2022-12-29T15:21:11;4.03;;;2.33;;
75716;SDS011;64333;50.138;14.332;2022-12-29T15:23:39;3.10;;;1.95;;
75716;SDS011;64333;50.138;14.332;2022-12-29T15:26:08;2.78;;;1.80;;
75716;SDS011;64333;50.138;14.332;2022-12-29T15:28:42;3.55;;;1.58;;
75716;SDS011;64333;50.138;14.332;2022-12-29T15:31:14;7.70;;;2.40;;
75716;SDS011;64333;50.138;14.332;2022-12-29T15:33:41;3.60;;;1.98;;
75716;SDS011;64333;50.138;14.332;2022-12-29T15:38:48;2.30;;;1.38;;
75716;SDS011;64333;50.138;14.332;2022-12-29T15:44:23;4.40;;;2.20;;
75716;SDS011;64333;50.138;14.332;2022-12-29T15:46:52;5.22;;;2.65;;
75716;SDS011;64333;50.138;14.332;2022-12-29T15:49:17;4.78;;;2.30;;
75716;SDS011;64333;50.138;14.332;2022-12-29T15:51:44;3.70;;;2.10;;
75716;SDS011;64333;50.138;14.332;2022-12-29T15:54:17;3.03;;;2.10;;
75716;SDS011;64333;50.138;14.332;2022-12-29T15:56:45;3.65;;;2.10;;
75716;SDS011;64333;50.138;14.332;2022-12-29T15:59:22;4.40;;;2.33;;
75716;SDS011;64333;50.138;14.332;2022-12-29T16:01:55;3.33;;;1.88;;
75716;SDS011;64333;50.138;14.332;2022-12-29T16:04:21;4.28;;;2.35;;
75716;SDS011;64333;50.138;14.332;2022-12-29T16:06:55;4.53;;;2.60;;
75716;SDS011;64333;50.138;14.332;2022-12-29T16:09:30;4.30;;;2.92;;
75716;SDS011;64333;50.138;14.332;2022-12-29T16:12:02;3.53;;;2.30;;
75716;SDS011;64333;50.138;14.332;2022-12-29T16:14:36;4.18;;;2.60;;
75716;SDS011;64333;50.138;14.332;2022-12-29T16:17:09;3.70;;;2.50;;
75716;SDS011;64333;50.138;14.332;2022-12-29T16:19:41;5.88;;;2.53;;
75716;SDS011;64333;50.138;14.332;2022-12-29T16:22:30;4.07;;;2.13;;
75716;SDS011;64333;50.138;14.332;2022-12-29T16:24:59;7.13;;;2.88;;
75716;SDS011;64333;50.138;14.332;2022-12-29T16:30:05;2.97;;;1.90;;
75716;SDS011;64333;50.138;14.332;2022-12-29T16:32:45;3.80;;;2.20;;
75716;SDS011;64333;50.138;14.332;2022-12-29T16:40:54;5.43;;;2.88;;
75716;SDS011;64333;50.138;14.332;2022-12-29T16:43:23;3.60;;;2.22;;
75716;SDS011;64333;50.138;14.332;2022-12-29T16:48:31;3.70;;;2.30;;
75716;SDS011;64333;50.138;14.332;2022-12-29T16:51:10;3.20;;;2.47;;
75716;SDS011;64333;50.138;14.332;2022-12-29T16:53:41;3.85;;;2.67;;
75716;SDS011;64333;50.138;14.332;2022-12-29T16:56:14;5.32;;;2.63;;
75716;SDS011;64333;50.138;14.332;2022-12-29T16:58:45;4.03;;;2.40;;
75716;SDS011;64333;50.138;14.332;2022-12-29T17:01:12;5.53;;;2.95;;
75716;SDS011;64333;50.138;14.332;2022-12-29T17:03:44;5.43;;;2.80;;
75716;SDS011;64333;50.138;14.332;2022-12-29T17:06:16;4.10;;;2.78;;
75716;SDS011;64333;50.138;14.332;2022-12-29T17:08:44;3.30;;;2.33;;
75716;SDS011;64333;50.138;14.332;2022-12-29T17:14:18;4.80;;;2.20;;
75716;SDS011;64333;50.138;14.332;2022-12-29T17:16:45;6.97;;;2.67;;
75716;SDS011;64333;50.138;14.332;2022-12-29T17:19:13;5.00;;;2.55;;
75716;SDS011;64333;50.138;14.332;2022-12-29T17:21:45;5.50;;;2.80;;
75716;SDS011;64333;50.138;14.332;2022-12-29T17:24:15;4.35;;;2.83;;
75716;SDS011;64333;50.138;14.332;2022-12-29T17:26:45;6.82;;;2.92;;
75716;SDS011;64333;50.138;14.332;2022-12-29T17:29:30;6.07;;;3.03;;
75716;SDS011;64333;50.138;14.332;2022-12-29T17:32:02;6.28;;;3.60;;
75716;SDS011;64333;50.138;14.332;2022-12-29T17:34:29;6.65;;;3.03;;
75716;SDS011;64333;50.138;14.332;2022-12-29T17:36:55;6.10;;;2.60;;
75716;SDS011;64333;50.138;14.332;2022-12-29T17:39:21;6.50;;;3.25;;
75716;SDS011;64333;50.138;14.332;2022-12-29T17:41:46;7.32;;;3.67;;
75716;SDS011;64333;50.138;14.332;2022-12-29T17:44:13;8.70;;;3.92;;
75716;SDS011;64333;50.138;14.332;2022-12-29T17:46:45;8.43;;;3.38;;
75716;SDS011;64333;50.138;14.332;2022-12-29T17:49:11;6.15;;;3.13;;
75716;SDS011;64333;50.138;14.332;2022-12-29T17:51:38;6.57;;;2.90;;
75716;SDS011;64333;50.138;14.332;2022-12-29T17:54:04;8.88;;;3.63;;
75716;SDS011;64333;50.138;14.332;2022-12-29T17:56:30;8.43;;;3.10;;